sensor_id;sensor_type;location;lat;lon;timestamp;pressure;altitude;pressure_sealevel;temperature;humidity
8059;BME280;4072;42.668;23.396;2023-04-08T09:18:26;95286.03;;;10.17;90.13
8059;BME280;4072;42.668;23.396;2023-04-08T09:21:11;95280.91;;;10.19;91.19
8059;BME280;4072;42.668;23.396;2023-04-08T09:23:41;95284.06;;;10.18;93.99
8059;BME280;4072;42.668;23.396;2023-04-08T09:26:11;95289.16;;;10.37;93.18
8059;BME280;4072;42.668;23.396;2023-04-08T09:31:22;95273.56;;;10.41;90.90
8059;BME280;4072;42.668;23.396;2023-04-08T09:34:11;95268.16;;;10.41;93.17
8059;BME280;4072;42.668;23.396;2023-04-08T09:36:41;95255.59;;;10.47;90.07
8059;BME280;4072;42.668;23.396;2023-04-08T09:39:12;95269.69;;;10.42;89.75
8059;BME280;4072;42.668;23.396;2023-04-08T09:41:41;95269.38;;;10.40;88.84
8059;BME280;4072;42.668;23.396;2023-04-08T09:44:10;95263.78;;;10.35;88.30
8059;BME280;4072;42.668;23.396;2023-04-08T09:46:43;95252.44;;;10.70;89.92
8059;BME280;4072;42.668;23.396;2023-04-08T09:49:21;95258.56;;;10.92;86.06
8059;BME280;4072;42.668;23.396;2023-04-08T09:51:58;95257.34;;;11.24;82.49
8059;BME280;4072;42.668;23.396;2023-04-08T09:54:38;95257.41;;;11.42;79.03
8059;BME280;4072;42.668;23.396;2023-04-08T09:57:11;95250.56;;;11.19;79.75
8059;BME280;4072;42.668;23.396;2023-04-08T09:59:51;95250.97;;;11.09;81.00
8059;BME280;4072;42.668;23.396;2023-04-08T10:02:29;95241.72;;;11.28;80.30
8059;BME280;4072;42.668;23.396;2023-04-08T10:05:00;95240.44;;;11.41;78.52
8059;BME280;4072;42.668;23.396;2023-04-08T10:07:34;95229.50;;;11.14;80.90
8059;BME280;4072;42.668;23.396;2023-04-08T10:10:03;95238.50;;;11.51;79.41
8059;BME280;4072;42.668;23.396;2023-04-08T10:12:32;95230.13;;;11.67;74.96
8059;BME280;4072;42.668;23.396;2023-04-08T10:15:23;95235.63;;;11.45;76.35
8059;BME280;4072;42.668;23.396;2023-04-08T10:18:28;95224.31;;;11.38;77.64
8059;BME280;4072;42.668;23.396;2023-04-08T10:20:49;95224.59;;;10.91;76.78
8059;BME280;4072;42.668;23.396;2023-04-08T10:23:18;95218.38;;;10.82;78.44
8059;BME280;4072;42.668;23.396;2023-04-08T10:25:47;95224.09;;;10.84;79.62
8059;BME280;4072;42.668;23.396;2023-04-08T10:28:25;95228.28;;;10.76;80.85
8059;BME280;4072;42.668;23.396;2023-04-08T10:30:54;95214.66;;;10.58;82.33
8059;BME280;4072;42.668;23.396;2023-04-08T10:33:30;95233.00;;;10.84;79.25
8059;BME280;4072;42.668;23.396;2023-04-08T10:36:08;95226.50;;;10.82;79.78
8059;BME280;4072;42.668;23.396;2023-04-08T10:38:37;95166.50;;;10.44;77.05
8059;BME280;4072;42.668;23.396;2023-04-08T10:41:05;95228.09;;;11.01;78.78
8059;BME280;4072;42.668;23.396;2023-04-08T10:43:35;95217.47;;;11.15;78.92
8059;BME280;4072;42.668;23.396;2023-04-08T10:46:09;95213.38;;;11.59;75.08
8059;BME280;4072;42.668;23.396;2023-04-08T10:48:37;95219.38;;;11.45;74.43
8059;BME280;4072;42.668;23.396;2023-04-08T10:51:06;95217.56;;;11.42;74.28
8059;BME280;4072;42.668;23.396;2023-04-08T10:53:36;95205.06;;;11.36;73.84
8059;BME280;4072;42.668;23.396;2023-04-08T10:56:06;95219.69;;;11.56;71.55
8059;BME280;4072;42.668;23.396;2023-04-08T10:58:35;95210.72;;;11.77;70.97
8059;BME280;4072;42.668;23.396;2023-04-08T11:01:04;95153.75;;;11.41;69.98
8059;BME280;4072;42.668;23.396;2023-04-08T11:03:35;95195.53;;;11.22;73.92
8059;BME280;4072;42.668;23.396;2023-04-08T11:06:04;95196.25;;;11.62;74.77
8059;BME280;4072;42.668;23.396;2023-04-08T11:08:35;95186.16;;;11.63;72.01
8059;BME280;4072;42.668;23.396;2023-04-08T11:11:05;95183.63;;;11.77;72.89
8059;BME280;4072;42.668;23.396;2023-04-08T11:13:40;95180.00;;;11.80;66.77
8059;BME280;4072;42.668;23.396;2023-04-08T11:16:19;95182.09;;;11.67;67.59
8059;BME280;4072;42.668;23.396;2023-04-08T11:18:49;95185.44;;;11.80;67.94
8059;BME280;4072;42.668;23.396;2023-04-08T11:21:18;95166.47;;;11.80;66.67
8059;BME280;4072;42.668;23.396;2023-04-08T11:23:49;95170.97;;;11.93;66.01
8059;BME280;4072;42.668;23.396;2023-04-08T11:26:20;95176.63;;;12.40;68.62
8059;BME280;4072;42.668;23.396;2023-04-08T11:28:48;95175.19;;;12.03;64.11
8059;BME280;4072;42.668;23.396;2023-04-08T11:31:18;95167.34;;;12.23;64.32
8059;BME280;4072;42.668;23.396;2023-04-08T11:33:52;95165.78;;;12.49;65.47
8059;BME280;4072;42.668;23.396;2023-04-08T11:36:20;95167.94;;;12.27;63.84
8059;BME280;4072;42.668;23.396;2023-04-08T11:38:53;95165.66;;;12.43;63.83
8059;BME280;4072;42.668;23.396;2023-04-08T11:41:21;95162.53;;;12.27;63.53
8059;BME280;4072;42.668;23.396;2023-04-08T11:43:53;95172.50;;;12.12;61.16
8059;BME280;4072;42.668;23.396;2023-04-08T11:46:22;95154.09;;;11.88;61.25
8059;BME280;4072;42.668;23.396;2023-04-08T11:48:58;95099.47;;;11.72;62.29
8059;BME280;4072;42.668;23.396;2023-04-08T11:51:27;95156.81;;;12.16;60.83
8059;BME280;4072;42.668;23.396;2023-04-08T11:53:58;95140.66;;;12.30;59.63
8059;BME280;4072;42.668;23.396;2023-04-08T11:56:26;95153.41;;;12.57;59.73
8059;BME280;4072;42.668;23.396;2023-04-08T11:58:56;95154.78;;;12.52;60.65
8059;BME280;4072;42.668;23.396;2023-04-08T12:01:25;95146.41;;;12.74;59.74
8059;BME280;4072;42.668;23.396;2023-04-08T12:03:55;95152.78;;;12.62;60.40
8059;BME280;4072;42.668;23.396;2023-04-08T12:06:24;95149.88;;;12.24;60.85
8059;BME280;4072;42.668;23.396;2023-04-08T12:08:54;95143.22;;;12.25;59.55
8059;BME280;4072;42.668;23.396;2023-04-08T12:11:24;95135.44;;;12.09;58.42
8059;BME280;4072;42.668;23.396;2023-04-08T12:13:52;95139.91;;;12.21;60.35
8059;BME280;4072;42.668;23.396;2023-04-08T12:16:20;95139.81;;;12.57;59.69
8059;BME280;4072;42.668;23.396;2023-04-08T12:18:48;95134.50;;;12.30;57.64
8059;BME280;4072;42.668;23.396;2023-04-08T12:21:16;95128.63;;;12.22;56.58
8059;BME280;4072;42.668;23.396;2023-04-08T12:23:44;95136.25;;;12.33;55.97
8059;BME280;4072;42.668;23.396;2023-04-08T12:26:12;95121.38;;;12.79;56.74
8059;BME280;4072;42.668;23.396;2023-04-08T12:28:42;95127.22;;;12.45;57.98
8059;BME280;4072;42.668;23.396;2023-04-08T12:31:12;95129.91;;;12.45;60.70
8059;BME280;4072;42.668;23.396;2023-04-08T12:33:40;95136.03;;;12.13;60.58
8059;BME280;4072;42.668;23.396;2023-04-08T12:36:08;95130.50;;;12.49;58.68
8059;BME280;4072;42.668;23.396;2023-04-08T12:38:39;95131.25;;;13.00;57.99
8059;BME280;4072;42.668;23.396;2023-04-08T12:41:07;95117.19;;;12.69;59.06
8059;BME280;4072;42.668;23.396;2023-04-08T12:43:35;95124.47;;;12.54;60.92
8059;BME280;4072;42.668;23.396;2023-04-08T12:46:06;95126.00;;;12.46;63.47
8059;BME280;4072;42.668;23.396;2023-04-08T12:48:33;95101.25;;;12.53;64.60
8059;BME280;4072;42.668;23.396;2023-04-08T12:51:02;95115.72;;;12.50;65.25
8059;BME280;4072;42.668;23.396;2023-04-08T12:53:30;95114.41;;;12.45;64.56
8059;BME280;4072;42.668;23.396;2023-04-08T12:55:58;95103.75;;;12.24;65.66
8059;BME280;4072;42.668;23.396;2023-04-08T12:58:26;95112.53;;;12.01;65.67
8059;BME280;4072;42.668;23.396;2023-04-08T13:00:54;95114.19;;;11.98;65.67
8059;BME280;4072;42.668;23.396;2023-04-08T13:03:24;95107.28;;;11.79;67.27
8059;BME280;4072;42.668;23.396;2023-04-08T13:05:55;95103.66;;;11.73;68.84
8059;BME280;4072;42.668;23.396;2023-04-08T13:08:24;95111.66;;;11.67;66.04
8059;BME280;4072;42.668;23.396;2023-04-08T13:10:52;95093.28;;;11.44;68.04
8059;BME280;4072;42.668;23.396;2023-04-08T13:13:21;95101.53;;;11.32;66.00
8059;BME280;4072;42.668;23.396;2023-04-08T13:15:49;95097.47;;;11.36;66.43
8059;BME280;4072;42.668;23.396;2023-04-08T13:18:17;95105.59;;;11.36;67.73
8059;BME280;4072;42.668;23.396;2023-04-08T13:20:47;95113.38;;;11.25;66.10
8059;BME280;4072;42.668;23.396;2023-04-08T13:23:15;95107.09;;;11.28;68.16
8059;BME280;4072;42.668;23.396;2023-04-08T13:25:44;95099.69;;;11.20;67.09
8059;BME280;4072;42.668;23.396;2023-04-08T13:28:12;95112.25;;;11.71;65.81
8059;BME280;4072;42.668;23.396;2023-04-08T13:30:41;95116.94;;;11.89;63.92
8059;BME280;4072;42.668;23.396;2023-04-08T13:33:09;95104.69;;;11.93;61.49
8059;BME280;4072;42.668;23.396;2023-04-08T13:35:37;95112.16;;;12.26;61.10
8059;BME280;4072;42.668;23.396;2023-04-08T13:38:09;95123.25;;;12.55;58.82
8059;BME280;4072;42.668;23.396;2023-04-08T13:40:38;95105.69;;;12.74;57.33
8059;BME280;4072;42.668;23.396;2023-04-08T13:43:07;95116.81;;;12.85;56.18
8059;BME280;4072;42.668;23.396;2023-04-08T13:45:35;95117.06;;;12.96;56.66
8059;BME280;4072;42.668;23.396;2023-04-08T13:48:03;95116.16;;;12.99;56.83
8059;BME280;4072;42.668;23.396;2023-04-08T13:50:31;95103.91;;;12.71;57.33
8059;BME280;4072;42.668;23.396;2023-04-08T13:52:59;95112.63;;;12.75;57.78
8059;BME280;4072;42.668;23.396;2023-04-08T13:55:29;95106.03;;;12.67;58.49
8059;BME280;4072;42.668;23.396;2023-04-08T13:57:57;95111.91;;;12.65;58.76
8059;BME280;4072;42.668;23.396;2023-04-08T14:00:25;95118.69;;;12.70;59.44
8059;BME280;4072;42.668;23.396;2023-04-08T14:02:54;95108.59;;;12.70;59.87
8059;BME280;4072;42.668;23.396;2023-04-08T14:05:22;95095.81;;;12.53;60.50
8059;BME280;4072;42.668;23.396;2023-04-08T14:07:50;95111.75;;;12.69;61.52
8059;BME280;4072;42.668;23.396;2023-04-08T14:10:18;95117.19;;;12.69;66.10
8059;BME280;4072;42.668;23.396;2023-04-08T14:12:50;95124.38;;;12.39;70.08
8059;BME280;4072;42.668;23.396;2023-04-08T14:15:18;95120.38;;;11.89;74.14
8059;BME280;4072;42.668;23.396;2023-04-08T14:17:46;95127.31;;;11.63;83.20
8059;BME280;4072;42.668;23.396;2023-04-08T14:20:15;95125.88;;;11.23;100.00
8059;BME280;4072;42.668;23.396;2023-04-08T14:22:44;95132.34;;;10.37;100.00
8059;BME280;4072;42.668;23.396;2023-04-08T14:25:15;95119.16;;;9.96;100.00
8059;BME280;4072;42.668;23.396;2023-04-08T14:27:43;95120.41;;;9.83;100.00
8059;BME280;4072;42.668;23.396;2023-04-08T14:30:25;95116.00;;;9.76;100.00
8059;BME280;4072;42.668;23.396;2023-04-08T14:32:54;95110.53;;;9.67;100.00
8059;BME280;4072;42.668;23.396;2023-04-08T14:35:25;95116.06;;;9.64;100.00
8059;BME280;4072;42.668;23.396;2023-04-08T14:37:53;95099.72;;;9.67;100.00
8059;BME280;4072;42.668;23.396;2023-04-08T14:40:22;95101.94;;;9.81;100.00
8059;BME280;4072;42.668;23.396;2023-04-08T14:42:51;95107.72;;;9.92;100.00
8059;BME280;4072;42.668;23.396;2023-04-08T14:45:19;95110.47;;;10.01;100.00
8059;BME280;4072;42.668;23.396;2023-04-08T14:47:49;95106.91;;;10.04;100.00
8059;BME280;4072;42.668;23.396;2023-04-08T14:50:17;95109.56;;;10.17;100.00
8059;BME280;4072;42.668;23.396;2023-04-08T14:52:45;95096.81;;;10.17;100.00
8059;BME280;4072;42.668;23.396;2023-04-08T14:55:14;95106.50;;;10.36;100.00
8059;BME280;4072;42.668;23.396;2023-04-08T14:57:43;95098.97;;;10.31;100.00
8059;BME280;4072;42.668;23.396;2023-04-08T15:00:12;95092.72;;;10.43;100.00
8059;BME280;4072;42.668;23.396;2023-04-08T15:02:40;95104.75;;;10.51;100.00
8059;BME280;4072;42.668;23.396;2023-04-08T15:05:11;95094.16;;;10.66;100.00
8059;BME280;4072;42.668;23.396;2023-04-08T15:07:39;95107.69;;;10.75;100.00
8059;BME280;4072;42.668;23.396;2023-04-08T15:10:09;95096.16;;;10.83;100.00
8059;BME280;4072;42.668;23.396;2023-04-08T15:12:37;95098.91;;;10.92;100.00
8059;BME280;4072;42.668;23.396;2023-04-08T15:15:06;95063.91;;;10.58;100.00
8059;BME280;4072;42.668;23.396;2023-04-08T15:17:35;95107.41;;;10.82;100.00
8059;BME280;4072;42.668;23.396;2023-04-08T15:20:04;95111.53;;;10.95;100.00
8059;BME280;4072;42.668;23.396;2023-04-08T15:22:34;95104.31;;;10.92;100.00
8059;BME280;4072;42.668;23.396;2023-04-08T15:25:03;95112.44;;;10.92;100.00
8059;BME280;4072;42.668;23.396;2023-04-08T15:27:32;95116.66;;;11.02;100.00
8059;BME280;4072;42.668;23.396;2023-04-08T15:30:01;95116.34;;;10.91;100.00
8059;BME280;4072;42.668;23.396;2023-04-08T15:32:29;95121.28;;;10.93;100.00
8059;BME280;4072;42.668;23.396;2023-04-08T15:34:58;95124.16;;;10.89;100.00
8059;BME280;4072;42.668;23.396;2023-04-08T15:37:26;95114.53;;;10.97;100.00
8059;BME280;4072;42.668;23.396;2023-04-08T15:39:57;95116.34;;;10.91;100.00
8059;BME280;4072;42.668;23.396;2023-04-08T15:42:25;95105.81;;;10.84;100.00
8059;BME280;4072;42.668;23.396;2023-04-08T15:44:53;95104.00;;;10.90;100.00
8059;BME280;4072;42.668;23.396;2023-04-08T15:47:21;95117.56;;;10.99;100.00
8059;BME280;4072;42.668;23.396;2023-04-08T15:49:51;95111.22;;;10.84;100.00
8059;BME280;4072;42.668;23.396;2023-04-08T15:52:21;95114.22;;;10.86;100.00
8059;BME280;4072;42.668;23.396;2023-04-08T15:54:51;95112.31;;;10.65;100.00
8059;BME280;4072;42.668;23.396;2023-04-08T15:57:21;95116.72;;;10.41;100.00
8059;BME280;4072;42.668;23.396;2023-04-08T15:59:52;95118.28;;;10.21;100.00
8059;BME280;4072;42.668;23.396;2023-04-08T16:02:20;95117.91;;;10.10;100.00
8059;BME280;4072;42.668;23.396;2023-04-08T16:04:49;95125.81;;;10.04;100.00
8059;BME280;4072;42.668;23.396;2023-04-08T16:07:17;95117.63;;;9.95;100.00
8059;BME280;4072;42.668;23.396;2023-04-08T16:09:46;95125.44;;;9.93;100.00
8059;BME280;4072;42.668;23.396;2023-04-08T16:12:14;95110.69;;;9.85;100.00
8059;BME280;4072;42.668;23.396;2023-04-08T16:14:44;95126.31;;;9.90;100.00
8059;BME280;4072;42.668;23.396;2023-04-08T16:17:13;95128.69;;;9.88;100.00
8059;BME280;4072;42.668;23.396;2023-04-08T16:19:42;95129.59;;;9.85;100.00
8059;BME280;4072;42.668;23.396;2023-04-08T16:22:10;95135.31;;;9.87;100.00
8059;BME280;4072;42.668;23.396;2023-04-08T16:24:38;95138.59;;;9.82;100.00
8059;BME280;4072;42.668;23.396;2023-04-08T16:27:07;95137.47;;;9.58;100.00
8059;BME280;4072;42.668;23.396;2023-04-08T16:29:35;95140.47;;;9.39;100.00
8059;BME280;4072;42.668;23.396;2023-04-08T16:32:04;95139.00;;;9.25;100.00
8059;BME280;4072;42.668;23.396;2023-04-08T16:34:33;95142.38;;;9.04;100.00
8059;BME280;4072;42.668;23.396;2023-04-08T16:37:02;95148.44;;;8.83;100.00
8059;BME280;4072;42.668;23.396;2023-04-08T16:39:30;95131.59;;;8.54;100.00
8059;BME280;4072;42.668;23.396;2023-04-08T16:41:58;95141.88;;;8.46;100.00
8059;BME280;4072;42.668;23.396;2023-04-08T16:44:26;95155.78;;;8.45;100.00
8059;BME280;4072;42.668;23.396;2023-04-08T16:46:55;95151.22;;;8.42;100.00
8059;BME280;4072;42.668;23.396;2023-04-08T16:49:26;95154.28;;;8.44;100.00
8059;BME280;4072;42.668;23.396;2023-04-08T16:51:54;95155.00;;;8.44;100.00
8059;BME280;4072;42.668;23.396;2023-04-08T16:54:22;95162.78;;;8.42;100.00
8059;BME280;4072;42.668;23.396;2023-04-08T16:56:51;95153.59;;;8.40;100.00
8059;BME280;4072;42.668;23.396;2023-04-08T16:59:19;95158.03;;;8.46;100.00
8059;BME280;4072;42.668;23.396;2023-04-08T17:01:48;95162.25;;;8.60;100.00
8059;BME280;4072;42.668;23.396;2023-04-08T17:04:16;95168.41;;;8.60;100.00
8059;BME280;4072;42.668;23.396;2023-04-08T17:06:46;95161.50;;;8.72;100.00
8059;BME280;4072;42.668;23.396;2023-04-08T17:09:15;95163.09;;;8.82;100.00
8059;BME280;4072;42.668;23.396;2023-04-08T17:11:43;95177.25;;;8.98;100.00
8059;BME280;4072;42.668;23.396;2023-04-08T17:14:12;95178.84;;;8.96;100.00
8059;BME280;4072;42.668;23.396;2023-04-08T17:16:41;95182.63;;;9.11;100.00
8059;BME280;4072;42.668;23.396;2023-04-08T17:19:09;95185.97;;;9.15;100.00
8059;BME280;4072;42.668;23.396;2023-04-08T17:21:39;95199.34;;;9.19;100.00
8059;BME280;4072;42.668;23.396;2023-04-08T17:24:10;95209.41;;;9.18;100.00
8059;BME280;4072;42.668;23.396;2023-04-08T17:26:40;95189.97;;;9.11;100.00
8059;BME280;4072;42.668;23.396;2023-04-08T17:29:08;95209.41;;;9.18;100.00
8059;BME280;4072;42.668;23.396;2023-04-08T17:31:38;95209.06;;;9.16;100.00
8059;BME280;4072;42.668;23.396;2023-04-08T17:34:09;95218.78;;;9.26;100.00
8059;BME280;4072;42.668;23.396;2023-04-08T17:36:38;95224.41;;;9.19;100.00
8059;BME280;4072;42.668;23.396;2023-04-08T17:39:06;95221.59;;;9.10;100.00
8059;BME280;4072;42.668;23.396;2023-04-08T17:41:36;95234.78;;;9.08;100.00
8059;BME280;4072;42.668;23.396;2023-04-08T17:44:06;95248.69;;;9.07;100.00
8059;BME280;4072;42.668;23.396;2023-04-08T17:46:34;95254.09;;;9.07;100.00
8059;BME280;4072;42.668;23.396;2023-04-08T17:49:03;95247.06;;;9.09;100.00
8059;BME280;4072;42.668;23.396;2023-04-08T17:51:32;95256.44;;;8.92;100.00
8059;BME280;4072;42.668;23.396;2023-04-08T17:54:00;95246.06;;;8.78;100.00
8059;BME280;4072;42.668;23.396;2023-04-08T17:56:28;95255.69;;;8.79;100.00
8059;BME280;4072;42.668;23.396;2023-04-08T17:58:58;95265.81;;;8.75;100.00
8059;BME280;4072;42.668;23.396;2023-04-08T18:01:27;95264.19;;;8.65;100.00
8059;BME280;4072;42.668;23.396;2023-04-08T18:03:55;95266.75;;;8.56;100.00
8059;BME280;4072;42.668;23.396;2023-04-08T18:06:24;95258.97;;;8.45;100.00
8059;BME280;4072;42.668;23.396;2023-04-08T18:08:53;95270.94;;;8.57;100.00
8059;BME280;4072;42.668;23.396;2023-04-08T18:11:22;95273.00;;;8.53;100.00
8059;BME280;4072;42.668;23.396;2023-04-08T18:13:54;95271.09;;;8.66;100.00
8059;BME280;4072;42.668;23.396;2023-04-08T18:16:24;95292.44;;;8.60;100.00
8059;BME280;4072;42.668;23.396;2023-04-08T18:18:52;95288.56;;;8.74;100.00
8059;BME280;4072;42.668;23.396;2023-04-08T18:21:21;95273.13;;;8.62;100.00
8059;BME280;4072;42.668;23.396;2023-04-08T18:23:49;95290.00;;;8.78;100.00
8059;BME280;4072;42.668;23.396;2023-04-08T18:26:17;95247.50;;;8.41;100.00
8059;BME280;4072;42.668;23.396;2023-04-08T18:28:45;95293.19;;;8.61;100.00
8059;BME280;4072;42.668;23.396;2023-04-08T18:31:13;95308.03;;;8.53;100.00
8059;BME280;4072;42.668;23.396;2023-04-08T18:33:44;95304.69;;;8.49;100.00
8059;BME280;4072;42.668;23.396;2023-04-08T18:36:12;95318.19;;;8.49;100.00
8059;BME280;4072;42.668;23.396;2023-04-08T18:38:40;95306.81;;;8.41;100.00
8059;BME280;4072;42.668;23.396;2023-04-08T18:41:10;95316.19;;;8.37;100.00
8059;BME280;4072;42.668;23.396;2023-04-08T18:43:39;95299.03;;;8.15;100.00
8059;BME280;4072;42.668;23.396;2023-04-08T18:46:07;95313.59;;;8.17;100.00
8059;BME280;4072;42.668;23.396;2023-04-08T18:48:35;95319.19;;;8.10;100.00
8059;BME280;4072;42.668;23.396;2023-04-08T18:51:05;95312.53;;;7.99;100.00
8059;BME280;4072;42.668;23.396;2023-04-08T18:53:33;95320.03;;;8.07;100.00
8059;BME280;4072;42.668;23.396;2023-04-08T18:56:02;95320.75;;;8.08;100.00
8059;BME280;4072;42.668;23.396;2023-04-08T18:58:30;95323.97;;;8.03;100.00
8059;BME280;4072;42.668;23.396;2023-04-08T19:00:59;95328.72;;;7.99;100.00
8059;BME280;4072;42.668;23.396;2023-04-08T19:03:27;95334.94;;;7.96;100.00
8059;BME280;4072;42.668;23.396;2023-04-08T19:05:55;95345.81;;;7.92;100.00
8059;BME280;4072;42.668;23.396;2023-04-08T19:08:25;95344.03;;;7.86;100.00
8059;BME280;4072;42.668;23.396;2023-04-08T19:10:54;95344.53;;;7.81;100.00
8059;BME280;4072;42.668;23.396;2023-04-08T19:13:22;95355.56;;;7.70;100.00
8059;BME280;4072;42.668;23.396;2023-04-08T19:15:50;95351.78;;;7.68;100.00
8059;BME280;4072;42.668;23.396;2023-04-08T19:18:19;95354.38;;;7.55;100.00
8059;BME280;4072;42.668;23.396;2023-04-08T19:20:47;95358.50;;;7.60;100.00
8059;BME280;4072;42.668;23.396;2023-04-08T19:23:15;95363.47;;;7.61;100.00
8059;BME280;4072;42.668;23.396;2023-04-08T19:25:45;95353.97;;;7.57;100.00
8059;BME280;4072;42.668;23.396;2023-04-08T19:28:14;95362.72;;;7.61;100.00
8059;BME280;4072;42.668;23.396;2023-04-08T19:30:42;95369.34;;;7.56;100.00
8059;BME280;4072;42.668;23.396;2023-04-08T19:33:11;95372.53;;;7.67;100.00
8059;BME280;4072;42.668;23.396;2023-04-08T19:35:39;95300.06;;;7.09;100.00
8059;BME280;4072;42.668;23.396;2023-04-08T19:38:08;95367.41;;;7.57;100.00
8059;BME280;4072;42.668;23.396;2023-04-08T19:40:39;95372.13;;;7.53;100.00
8059;BME280;4072;42.668;23.396;2023-04-08T19:43:08;95375.06;;;7.58;100.00
8059;BME280;4072;42.668;23.396;2023-04-08T19:45:37;95330.38;;;7.29;100.00
8059;BME280;4072;42.668;23.396;2023-04-08T19:48:05;95368.94;;;7.58;100.00
8059;BME280;4072;42.668;23.396;2023-04-08T19:50:36;95301.59;;;7.10;100.00
8059;BME280;4072;42.668;23.396;2023-04-08T19:53:04;95376.00;;;7.52;100.00
8059;BME280;4072;42.668;23.396;2023-04-08T19:55:32;95373.63;;;7.54;100.00
8059;BME280;4072;42.668;23.396;2023-04-08T19:58:03;95375.13;;;7.55;100.00
8059;BME280;4072;42.668;23.396;2023-04-08T20:00:32;95376.00;;;7.52;100.00
8059;BME280;4072;42.668;23.396;2023-04-08T20:03:03;95378.44;;;7.62;100.00
8059;BME280;4072;42.668;23.396;2023-04-08T20:05:34;95368.84;;;7.61;100.00
8059;BME280;4072;42.668;23.396;2023-04-08T20:08:02;95376.34;;;7.70;100.00
8059;BME280;4072;42.668;23.396;2023-04-08T20:10:30;95373.16;;;7.75;100.00
8059;BME280;4072;42.668;23.396;2023-04-08T20:12:58;95376.09;;;7.80;100.00
8059;BME280;4072;42.668;23.396;2023-04-08T20:15:26;95376.94;;;7.77;100.00
8059;BME280;4072;42.668;23.396;2023-04-08T20:17:56;95373.31;;;7.68;100.00
8059;BME280;4072;42.668;23.396;2023-04-08T20:20:24;95363.56;;;7.74;100.00
8059;BME280;4072;42.668;23.396;2023-04-08T20:22:55;95371.13;;;7.95;100.00
8059;BME280;4072;42.668;23.396;2023-04-08T20:25:23;95360.88;;;7.74;100.00
8059;BME280;4072;42.668;23.396;2023-04-08T20:27:51;95368.28;;;7.86;100.00
8059;BME280;4072;42.668;23.396;2023-04-08T20:30:19;95372.16;;;7.85;100.00
8059;BME280;4072;42.668;23.396;2023-04-08T20:32:48;95366.09;;;7.81;100.00
8059;BME280;4072;42.668;23.396;2023-04-08T20:35:18;95358.59;;;7.72;100.00
8059;BME280;4072;42.668;23.396;2023-04-08T20:37:47;95365.59;;;7.70;100.00
8059;BME280;4072;42.668;23.396;2023-04-08T20:40:16;95303.47;;;7.29;100.00
8059;BME280;4072;42.668;23.396;2023-04-08T20:42:44;95368.75;;;7.65;100.00
8059;BME280;4072;42.668;23.396;2023-04-08T20:45:12;95370.81;;;7.77;100.00
8059;BME280;4072;42.668;23.396;2023-04-08T20:47:40;95366.94;;;7.78;100.00
8059;BME280;4072;42.668;23.396;2023-04-08T20:50:10;95360.03;;;7.77;100.00
8059;BME280;4072;42.668;23.396;2023-04-08T20:52:40;95367.75;;;7.75;100.00
8059;BME280;4072;42.668;23.396;2023-04-08T20:55:09;95364.22;;;7.62;100.00
8059;BME280;4072;42.668;23.396;2023-04-08T20:57:37;95365.91;;;7.56;100.00
8059;BME280;4072;42.668;23.396;2023-04-08T21:00:07;95365.41;;;7.45;100.00
8059;BME280;4072;42.668;23.396;2023-04-08T21:02:36;95365.41;;;7.45;100.00
8059;BME280;4072;42.668;23.396;2023-04-08T21:05:04;95370.84;;;7.41;100.00
8059;BME280;4072;42.668;23.396;2023-04-08T21:07:33;95366.22;;;7.42;100.00
8059;BME280;4072;42.668;23.396;2023-04-08T21:10:03;95366.66;;;7.40;100.00
8059;BME280;4072;42.668;23.396;2023-04-08T21:12:31;95360.91;;;7.38;100.00
8059;BME280;4072;42.668;23.396;2023-04-08T21:15:00;95366.38;;;7.35;100.00
8059;BME280;4072;42.668;23.396;2023-04-08T21:17:28;95357.47;;;7.38;100.00
8059;BME280;4072;42.668;23.396;2023-04-08T21:19:56;95367.66;;;7.46;100.00
8059;BME280;4072;42.668;23.396;2023-04-08T21:22:25;95349.22;;;7.29;100.00
8059;BME280;4072;42.668;23.396;2023-04-08T21:24:54;95359.47;;;7.34;100.00
8059;BME280;4072;42.668;23.396;2023-04-08T21:27:24;95358.13;;;7.26;100.00
8059;BME280;4072;42.668;23.396;2023-04-08T21:29:53;95365.59;;;7.18;100.00
8059;BME280;4072;42.668;23.396;2023-04-08T21:32:21;95277.41;;;6.55;100.00
8059;BME280;4072;42.668;23.396;2023-04-08T21:34:51;95367.38;;;7.25;100.00
8059;BME280;4072;42.668;23.396;2023-04-08T21:37:20;95363.44;;;7.29;100.00
8059;BME280;4072;42.668;23.396;2023-04-08T21:39:49;95357.81;;;7.40;100.00
8059;BME280;4072;42.668;23.396;2023-04-08T21:42:18;95362.09;;;7.37;100.00
8059;BME280;4072;42.668;23.396;2023-04-08T21:44:50;95356.97;;;7.43;100.00
8059;BME280;4072;42.668;23.396;2023-04-08T21:47:18;95348.72;;;7.50;100.00
8059;BME280;4072;42.668;23.396;2023-04-08T21:49:46;95354.78;;;7.38;100.00
8059;BME280;4072;42.668;23.396;2023-04-08T21:52:15;95352.41;;;7.40;100.00
8059;BME280;4072;42.668;23.396;2023-04-08T21:54:47;95344.53;;;7.49;100.00
8059;BME280;4072;42.668;23.396;2023-04-08T21:57:16;95294.69;;;7.09;100.00
8059;BME280;4072;42.668;23.396;2023-04-08T21:59:47;95348.63;;;7.37;100.00
8059;BME280;4072;42.668;23.396;2023-04-08T22:02:17;95354.69;;;7.41;100.00
8059;BME280;4072;42.668;23.396;2023-04-08T22:04:46;95350.75;;;7.46;100.00
8059;BME280;4072;42.668;23.396;2023-04-08T22:07:16;95343.94;;;7.41;100.00
8059;BME280;4072;42.668;23.396;2023-04-08T22:09:44;95353.03;;;7.47;100.00
8059;BME280;4072;42.668;23.396;2023-04-08T22:12:12;95357.81;;;7.40;100.00
8059;BME280;4072;42.668;23.396;2023-04-08T22:14:40;95350.91;;;7.39;100.00
8059;BME280;4072;42.668;23.396;2023-04-08T22:17:08;95348.22;;;7.39;100.00
8059;BME280;4072;42.668;23.396;2023-04-08T22:19:39;95337.34;;;7.26;100.00
8059;BME280;4072;42.668;23.396;2023-04-08T22:22:07;95346.00;;;7.18;100.00
8059;BME280;4072;42.668;23.396;2023-04-08T22:24:36;95338.25;;;7.20;100.00
8059;BME280;4072;42.668;23.396;2023-04-08T22:27:04;95342.94;;;7.16;100.00
8059;BME280;4072;42.668;23.396;2023-04-08T22:29:32;95339.63;;;7.28;100.00
8059;BME280;4072;42.668;23.396;2023-04-08T22:32:01;95334.41;;;7.21;100.00
8059;BME280;4072;42.668;23.396;2023-04-08T22:34:29;95334.56;;;7.14;100.00
8059;BME280;4072;42.668;23.396;2023-04-08T22:36:59;95344.66;;;7.10;100.00
8059;BME280;4072;42.668;23.396;2023-04-08T22:39:27;95335.38;;;7.11;100.00
8059;BME280;4072;42.668;23.396;2023-04-08T22:41:56;95340.91;;;7.04;100.00